sensor_id;sensor_type;location;lat;lon;timestamp;P1;durP1;ratioP1;P2;durP2;ratioP2
9072;SDS011;4572;41.642;25.370;2022-10-16T00:00:39;6.03;;;3.27;;
9072;SDS011;4572;41.642;25.370;2022-10-16T00:03:05;4.87;;;3.00;;
9072;SDS011;4572;41.642;25.370;2022-10-16T00:05:31;4.53;;;3.20;;
9072;SDS011;4572;41.642;25.370;2022-10-16T00:07:57;4.77;;;2.87;;
9072;SDS011;4572;41.642;25.370;2022-10-16T00:10:23;5.40;;;3.77;;
9072;SDS011;4572;41.642;25.370;2022-10-16T00:12:48;4.43;;;3.10;;
9072;SDS011;4572;41.642;25.370;2022-10-16T00:15:14;6.10;;;3.20;;
9072;SDS011;4572;41.642;25.370;2022-10-16T00:17:40;5.27;;;3.27;;
9072;SDS011;4572;41.642;25.370;2022-10-16T00:20:05;5.53;;;3.40;;
9072;SDS011;4572;41.642;25.370;2022-10-16T00:22:31;9.17;;;3.53;;
9072;SDS011;4572;41.642;25.370;2022-10-16T00:24:56;4.63;;;3.20;;
9072;SDS011;4572;41.642;25.370;2022-10-16T00:27:22;8.63;;;3.30;;
9072;SDS011;4572;41.642;25.370;2022-10-16T00:29:51;4.27;;;3.40;;
9072;SDS011;4572;41.642;25.370;2022-10-16T00:32:18;5.40;;;3.37;;
9072;SDS011;4572;41.642;25.370;2022-10-16T00:34:44;3.87;;;3.40;;
9072;SDS011;4572;41.642;25.370;2022-10-16T00:37:10;3.60;;;3.30;;
9072;SDS011;4572;41.642;25.370;2022-10-16T00:39:36;6.30;;;3.47;;
9072;SDS011;4572;41.642;25.370;2022-10-16T00:42:01;4.53;;;3.23;;
9072;SDS011;4572;41.642;25.370;2022-10-16T00:47:24;5.57;;;3.27;;
9072;SDS011;4572;41.642;25.370;2022-10-16T00:50:29;4.57;;;3.90;;
9072;SDS011;4572;41.642;25.370;2022-10-16T00:52:49;3.80;;;3.40;;
9072;SDS011;4572;41.642;25.370;2022-10-16T00:55:15;5.47;;;3.60;;
9072;SDS011;4572;41.642;25.370;2022-10-16T00:57:41;7.83;;;4.07;;
9072;SDS011;4572;41.642;25.370;2022-10-16T01:00:08;3.37;;;3.07;;
9072;SDS011;4572;41.642;25.370;2022-10-16T01:02:35;5.63;;;3.60;;
9072;SDS011;4572;41.642;25.370;2022-10-16T01:05:02;8.13;;;3.33;;
9072;SDS011;4572;41.642;25.370;2022-10-16T01:07:43;6.23;;;3.80;;
9072;SDS011;4572;41.642;25.370;2022-10-16T01:13:00;6.73;;;3.70;;
9072;SDS011;4572;41.642;25.370;2022-10-16T01:18:14;5.33;;;3.50;;
9072;SDS011;4572;41.642;25.370;2022-10-16T01:20:47;3.80;;;2.73;;
9072;SDS011;4572;41.642;25.370;2022-10-16T01:23:35;7.40;;;3.57;;
9072;SDS011;4572;41.642;25.370;2022-10-16T01:26:26;5.53;;;3.60;;
9072;SDS011;4572;41.642;25.370;2022-10-16T01:40:12;4.33;;;3.47;;
9072;SDS011;4572;41.642;25.370;2022-10-16T01:42:41;6.63;;;3.80;;
9072;SDS011;4572;41.642;25.370;2022-10-16T01:45:10;6.17;;;4.00;;
9072;SDS011;4572;41.642;25.370;2022-10-16T01:47:38;5.67;;;3.77;;
9072;SDS011;4572;41.642;25.370;2022-10-16T01:50:04;7.03;;;3.20;;
9072;SDS011;4572;41.642;25.370;2022-10-16T01:52:32;4.57;;;3.30;;
9072;SDS011;4572;41.642;25.370;2022-10-16T01:55:00;6.17;;;3.37;;
9072;SDS011;4572;41.642;25.370;2022-10-16T01:57:29;5.13;;;3.27;;
9072;SDS011;4572;41.642;25.370;2022-10-16T01:59:56;5.03;;;3.50;;
9072;SDS011;4572;41.642;25.370;2022-10-16T02:02:23;6.77;;;3.80;;
9072;SDS011;4572;41.642;25.370;2022-10-16T02:04:53;4.77;;;3.00;;
9072;SDS011;4572;41.642;25.370;2022-10-16T02:07:22;4.97;;;3.07;;
9072;SDS011;4572;41.642;25.370;2022-10-16T02:09:48;4.90;;;3.13;;
9072;SDS011;4572;41.642;25.370;2022-10-16T02:14:51;4.70;;;3.07;;
9072;SDS011;4572;41.642;25.370;2022-10-16T02:17:17;5.07;;;3.20;;
9072;SDS011;4572;41.642;25.370;2022-10-16T02:19:42;6.93;;;3.60;;
9072;SDS011;4572;41.642;25.370;2022-10-16T02:22:10;7.43;;;3.50;;
9072;SDS011;4572;41.642;25.370;2022-10-16T02:24:50;7.40;;;3.20;;
9072;SDS011;4572;41.642;25.370;2022-10-16T02:27:24;5.00;;;3.00;;
9072;SDS011;4572;41.642;25.370;2022-10-16T02:30:15;3.83;;;2.90;;
9072;SDS011;4572;41.642;25.370;2022-10-16T02:32:45;4.53;;;2.70;;
9072;SDS011;4572;41.642;25.370;2022-10-16T02:35:13;6.47;;;3.20;;
9072;SDS011;4572;41.642;25.370;2022-10-16T02:37:40;5.07;;;3.30;;
9072;SDS011;4572;41.642;25.370;2022-10-16T02:40:06;4.27;;;3.20;;
9072;SDS011;4572;41.642;25.370;2022-10-16T02:42:33;5.67;;;3.47;;
9072;SDS011;4572;41.642;25.370;2022-10-16T02:48:41;5.63;;;2.93;;
9072;SDS011;4572;41.642;25.370;2022-10-16T02:51:06;6.17;;;3.37;;
9072;SDS011;4572;41.642;25.370;2022-10-16T02:53:32;5.20;;;3.57;;
9072;SDS011;4572;41.642;25.370;2022-10-16T02:55:58;5.10;;;3.40;;
9072;SDS011;4572;41.642;25.370;2022-10-16T02:58:23;5.87;;;2.83;;
9072;SDS011;4572;41.642;25.370;2022-10-16T03:00:49;4.97;;;3.57;;
9072;SDS011;4572;41.642;25.370;2022-10-16T03:03:14;4.87;;;3.40;;
9072;SDS011;4572;41.642;25.370;2022-10-16T03:05:39;4.93;;;3.07;;
9072;SDS011;4572;41.642;25.370;2022-10-16T03:08:05;5.00;;;3.27;;
9072;SDS011;4572;41.642;25.370;2022-10-16T03:10:30;3.63;;;2.87;;
9072;SDS011;4572;41.642;25.370;2022-10-16T03:12:56;6.37;;;3.43;;
9072;SDS011;4572;41.642;25.370;2022-10-16T03:15:21;7.00;;;3.47;;
9072;SDS011;4572;41.642;25.370;2022-10-16T03:17:47;3.37;;;3.07;;
9072;SDS011;4572;41.642;25.370;2022-10-16T03:20:13;6.07;;;3.30;;
9072;SDS011;4572;41.642;25.370;2022-10-16T03:22:38;5.00;;;3.13;;
9072;SDS011;4572;41.642;25.370;2022-10-16T03:25:04;5.10;;;3.67;;
9072;SDS011;4572;41.642;25.370;2022-10-16T03:27:30;4.50;;;3.37;;
9072;SDS011;4572;41.642;25.370;2022-10-16T03:29:55;8.00;;;3.53;;
9072;SDS011;4572;41.642;25.370;2022-10-16T03:32:21;5.90;;;3.30;;
9072;SDS011;4572;41.642;25.370;2022-10-16T03:34:46;9.27;;;3.23;;
9072;SDS011;4572;41.642;25.370;2022-10-16T03:37:12;5.63;;;3.00;;
9072;SDS011;4572;41.642;25.370;2022-10-16T03:39:37;6.07;;;3.67;;
9072;SDS011;4572;41.642;25.370;2022-10-16T03:42:03;5.97;;;3.70;;
9072;SDS011;4572;41.642;25.370;2022-10-16T03:44:28;5.00;;;4.00;;
9072;SDS011;4572;41.642;25.370;2022-10-16T03:46:54;6.77;;;3.73;;
9072;SDS011;4572;41.642;25.370;2022-10-16T03:49:19;4.70;;;3.57;;
9072;SDS011;4572;41.642;25.370;2022-10-16T03:51:45;6.23;;;4.23;;
9072;SDS011;4572;41.642;25.370;2022-10-16T03:54:10;6.17;;;4.33;;
9072;SDS011;4572;41.642;25.370;2022-10-16T03:56:36;7.10;;;4.57;;
9072;SDS011;4572;41.642;25.370;2022-10-16T03:59:01;5.87;;;4.30;;
9072;SDS011;4572;41.642;25.370;2022-10-16T04:01:27;5.03;;;3.63;;
9072;SDS011;4572;41.642;25.370;2022-10-16T04:03:52;5.63;;;3.47;;
9072;SDS011;4572;41.642;25.370;2022-10-16T04:06:18;3.90;;;3.13;;
9072;SDS011;4572;41.642;25.370;2022-10-16T04:08:43;4.60;;;3.33;;
9072;SDS011;4572;41.642;25.370;2022-10-16T04:11:09;5.43;;;3.63;;
9072;SDS011;4572;41.642;25.370;2022-10-16T04:13:34;4.07;;;3.40;;
9072;SDS011;4572;41.642;25.370;2022-10-16T04:16:00;7.10;;;3.80;;
9072;SDS011;4572;41.642;25.370;2022-10-16T04:18:25;4.00;;;3.43;;
9072;SDS011;4572;41.642;25.370;2022-10-16T04:20:52;9.07;;;3.87;;
9072;SDS011;4572;41.642;25.370;2022-10-16T04:23:18;5.37;;;3.93;;
9072;SDS011;4572;41.642;25.370;2022-10-16T04:25:44;7.27;;;3.80;;
9072;SDS011;4572;41.642;25.370;2022-10-16T04:28:09;8.60;;;4.23;;
9072;SDS011;4572;41.642;25.370;2022-10-16T04:30:37;7.53;;;4.87;;
9072;SDS011;4572;41.642;25.370;2022-10-16T04:33:03;9.67;;;5.50;;
9072;SDS011;4572;41.642;25.370;2022-10-16T04:35:29;7.27;;;4.60;;
9072;SDS011;4572;41.642;25.370;2022-10-16T04:37:54;7.80;;;4.60;;
9072;SDS011;4572;41.642;25.370;2022-10-16T04:40:22;6.53;;;4.33;;
9072;SDS011;4572;41.642;25.370;2022-10-16T04:42:48;6.33;;;4.80;;
9072;SDS011;4572;41.642;25.370;2022-10-16T04:45:13;5.87;;;4.63;;
9072;SDS011;4572;41.642;25.370;2022-10-16T04:47:39;10.90;;;5.30;;
9072;SDS011;4572;41.642;25.370;2022-10-16T04:50:05;6.77;;;4.87;;
9072;SDS011;4572;41.642;25.370;2022-10-16T04:52:31;4.57;;;4.07;;
9072;SDS011;4572;41.642;25.370;2022-10-16T04:54:57;5.60;;;5.07;;
9072;SDS011;4572;41.642;25.370;2022-10-16T04:57:26;7.27;;;4.67;;
9072;SDS011;4572;41.642;25.370;2022-10-16T04:59:52;5.80;;;4.50;;
9072;SDS011;4572;41.642;25.370;2022-10-16T05:02:17;7.57;;;4.80;;
9072;SDS011;4572;41.642;25.370;2022-10-16T05:04:43;8.73;;;4.77;;
9072;SDS011;4572;41.642;25.370;2022-10-16T05:07:08;6.20;;;4.53;;
9072;SDS011;4572;41.642;25.370;2022-10-16T05:09:34;7.17;;;4.60;;
9072;SDS011;4572;41.642;25.370;2022-10-16T05:11:59;5.67;;;5.00;;
9072;SDS011;4572;41.642;25.370;2022-10-16T05:14:25;7.97;;;4.70;;
9072;SDS011;4572;41.642;25.370;2022-10-16T05:16:50;8.23;;;5.20;;
9072;SDS011;4572;41.642;25.370;2022-10-16T05:19:17;7.17;;;5.50;;
9072;SDS011;4572;41.642;25.370;2022-10-16T05:21:43;8.60;;;5.53;;
9072;SDS011;4572;41.642;25.370;2022-10-16T05:24:08;9.40;;;5.63;;
9072;SDS011;4572;41.642;25.370;2022-10-16T05:26:34;9.67;;;5.40;;
9072;SDS011;4572;41.642;25.370;2022-10-16T05:29:00;12.30;;;5.97;;
9072;SDS011;4572;41.642;25.370;2022-10-16T05:31:25;7.53;;;5.60;;
9072;SDS011;4572;41.642;25.370;2022-10-16T05:33:51;7.77;;;6.07;;
9072;SDS011;4572;41.642;25.370;2022-10-16T05:36:16;10.77;;;7.57;;
9072;SDS011;4572;41.642;25.370;2022-10-16T05:38:43;7.33;;;5.70;;
9072;SDS011;4572;41.642;25.370;2022-10-16T05:41:09;11.17;;;6.20;;
9072;SDS011;4572;41.642;25.370;2022-10-16T05:43:34;7.80;;;5.87;;
9072;SDS011;4572;41.642;25.370;2022-10-16T05:46:01;16.27;;;6.23;;
9072;SDS011;4572;41.642;25.370;2022-10-16T05:48:29;8.80;;;5.50;;
9072;SDS011;4572;41.642;25.370;2022-10-16T05:50:59;10.07;;;6.40;;
9072;SDS011;4572;41.642;25.370;2022-10-16T05:53:29;10.17;;;6.70;;
9072;SDS011;4572;41.642;25.370;2022-10-16T05:55:57;7.50;;;5.43;;
9072;SDS011;4572;41.642;25.370;2022-10-16T05:58:23;8.67;;;5.40;;
9072;SDS011;4572;41.642;25.370;2022-10-16T06:00:56;8.37;;;5.80;;
9072;SDS011;4572;41.642;25.370;2022-10-16T06:03:25;10.10;;;5.90;;
9072;SDS011;4572;41.642;25.370;2022-10-16T06:05:51;7.77;;;6.53;;
9072;SDS011;4572;41.642;25.370;2022-10-16T06:08:17;9.93;;;6.10;;
9072;SDS011;4572;41.642;25.370;2022-10-16T06:10:43;21.27;;;7.40;;
9072;SDS011;4572;41.642;25.370;2022-10-16T06:13:10;11.87;;;6.77;;
9072;SDS011;4572;41.642;25.370;2022-10-16T06:15:36;15.37;;;8.07;;
9072;SDS011;4572;41.642;25.370;2022-10-16T06:18:01;10.10;;;6.80;;
9072;SDS011;4572;41.642;25.370;2022-10-16T06:20:27;10.23;;;7.17;;
9072;SDS011;4572;41.642;25.370;2022-10-16T06:22:52;8.47;;;6.83;;
9072;SDS011;4572;41.642;25.370;2022-10-16T06:25:18;10.50;;;7.03;;
9072;SDS011;4572;41.642;25.370;2022-10-16T06:27:43;10.67;;;6.60;;
9072;SDS011;4572;41.642;25.370;2022-10-16T06:30:09;9.07;;;6.50;;
9072;SDS011;4572;41.642;25.370;2022-10-16T06:32:34;8.43;;;6.00;;
9072;SDS011;4572;41.642;25.370;2022-10-16T06:35:00;13.90;;;6.43;;
9072;SDS011;4572;41.642;25.370;2022-10-16T06:37:26;8.40;;;5.47;;
9072;SDS011;4572;41.642;25.370;2022-10-16T06:39:52;15.33;;;7.33;;
9072;SDS011;4572;41.642;25.370;2022-10-16T06:42:17;11.60;;;6.30;;
9072;SDS011;4572;41.642;25.370;2022-10-16T06:44:43;18.37;;;6.30;;
9072;SDS011;4572;41.642;25.370;2022-10-16T06:47:09;8.33;;;5.70;;
9072;SDS011;4572;41.642;25.370;2022-10-16T06:49:34;7.77;;;5.50;;
9072;SDS011;4572;41.642;25.370;2022-10-16T06:52:00;9.43;;;5.57;;
9072;SDS011;4572;41.642;25.370;2022-10-16T06:54:26;9.90;;;5.10;;
9072;SDS011;4572;41.642;25.370;2022-10-16T06:56:52;6.53;;;4.83;;
9072;SDS011;4572;41.642;25.370;2022-10-16T06:59:19;7.70;;;4.80;;
9072;SDS011;4572;41.642;25.370;2022-10-16T07:01:48;7.10;;;4.67;;
9072;SDS011;4572;41.642;25.370;2022-10-16T07:04:13;6.23;;;3.97;;
9072;SDS011;4572;41.642;25.370;2022-10-16T07:06:39;6.13;;;4.13;;
9072;SDS011;4572;41.642;25.370;2022-10-16T07:09:05;6.13;;;4.13;;
9072;SDS011;4572;41.642;25.370;2022-10-16T07:11:32;10.57;;;4.40;;
9072;SDS011;4572;41.642;25.370;2022-10-16T07:13:58;6.27;;;4.47;;
9072;SDS011;4572;41.642;25.370;2022-10-16T07:16:26;6.47;;;3.87;;
9072;SDS011;4572;41.642;25.370;2022-10-16T07:18:59;6.07;;;3.83;;
9072;SDS011;4572;41.642;25.370;2022-10-16T07:21:27;6.37;;;4.00;;
9072;SDS011;4572;41.642;25.370;2022-10-16T07:23:58;5.50;;;4.30;;
9072;SDS011;4572;41.642;25.370;2022-10-16T07:26:24;5.60;;;3.93;;
9072;SDS011;4572;41.642;25.370;2022-10-16T07:28:50;6.97;;;4.07;;
9072;SDS011;4572;41.642;25.370;2022-10-16T07:31:17;5.60;;;4.10;;
9072;SDS011;4572;41.642;25.370;2022-10-16T07:33:44;5.57;;;3.90;;
9072;SDS011;4572;41.642;25.370;2022-10-16T07:36:11;7.23;;;3.70;;
9072;SDS011;4572;41.642;25.370;2022-10-16T07:38:37;6.30;;;3.90;;
9072;SDS011;4572;41.642;25.370;2022-10-16T07:41:04;10.20;;;5.47;;
9072;SDS011;4572;41.642;25.370;2022-10-16T07:43:31;9.73;;;4.23;;
9072;SDS011;4572;41.642;25.370;2022-10-16T07:45:57;7.07;;;4.70;;
9072;SDS011;4572;41.642;25.370;2022-10-16T07:48:24;5.97;;;4.53;;
9072;SDS011;4572;41.642;25.370;2022-10-16T07:50:51;5.37;;;3.60;;
9072;SDS011;4572;41.642;25.370;2022-10-16T07:53:17;6.17;;;3.80;;
9072;SDS011;4572;41.642;25.370;2022-10-16T07:55:42;4.43;;;3.30;;
9072;SDS011;4572;41.642;25.370;2022-10-16T07:58:08;6.83;;;4.00;;
9072;SDS011;4572;41.642;25.370;2022-10-16T08:00:35;4.67;;;3.50;;
9072;SDS011;4572;41.642;25.370;2022-10-16T08:03:01;5.00;;;3.50;;
9072;SDS011;4572;41.642;25.370;2022-10-16T08:05:27;5.90;;;3.80;;
9072;SDS011;4572;41.642;25.370;2022-10-16T08:07:53;4.87;;;3.00;;
9072;SDS011;4572;41.642;25.370;2022-10-16T08:10:22;4.13;;;3.27;;
9072;SDS011;4572;41.642;25.370;2022-10-16T08:12:49;4.47;;;3.37;;
9072;SDS011;4572;41.642;25.370;2022-10-16T08:15:15;9.13;;;4.80;;
9072;SDS011;4572;41.642;25.370;2022-10-16T08:17:40;8.60;;;5.03;;
9072;SDS011;4572;41.642;25.370;2022-10-16T08:20:06;6.63;;;5.70;;
9072;SDS011;4572;41.642;25.370;2022-10-16T08:22:32;11.00;;;5.80;;
9072;SDS011;4572;41.642;25.370;2022-10-16T08:24:58;6.10;;;4.23;;
9072;SDS011;4572;41.642;25.370;2022-10-16T08:27:23;7.67;;;4.57;;
9072;SDS011;4572;41.642;25.370;2022-10-16T08:29:49;8.53;;;5.63;;
9072;SDS011;4572;41.642;25.370;2022-10-16T08:32:14;9.40;;;6.10;;
9072;SDS011;4572;41.642;25.370;2022-10-16T08:34:40;13.00;;;6.90;;
9072;SDS011;4572;41.642;25.370;2022-10-16T08:37:06;8.23;;;5.27;;
9072;SDS011;4572;41.642;25.370;2022-10-16T08:39:33;9.53;;;6.20;;
9072;SDS011;4572;41.642;25.370;2022-10-16T08:42:07;7.50;;;6.07;;
9072;SDS011;4572;41.642;25.370;2022-10-16T08:45:02;5.70;;;4.77;;
9072;SDS011;4572;41.642;25.370;2022-10-16T08:50:25;9.57;;;6.90;;
9072;SDS011;4572;41.642;25.370;2022-10-16T08:52:53;9.87;;;6.00;;
9072;SDS011;4572;41.642;25.370;2022-10-16T08:55:27;8.60;;;5.90;;
9072;SDS011;4572;41.642;25.370;2022-10-16T08:57:55;9.23;;;6.17;;
9072;SDS011;4572;41.642;25.370;2022-10-16T09:00:21;8.73;;;6.13;;
9072;SDS011;4572;41.642;25.370;2022-10-16T09:05:21;13.77;;;7.00;;
9072;SDS011;4572;41.642;25.370;2022-10-16T09:08:01;9.80;;;7.63;;
9072;SDS011;4572;41.642;25.370;2022-10-16T09:13:40;11.20;;;7.50;;
9072;SDS011;4572;41.642;25.370;2022-10-16T09:21:14;9.07;;;7.20;;
9072;SDS011;4572;41.642;25.370;2022-10-16T09:23:43;9.33;;;6.17;;
9072;SDS011;4572;41.642;25.370;2022-10-16T09:26:10;8.43;;;6.47;;
9072;SDS011;4572;41.642;25.370;2022-10-16T09:28:37;7.77;;;6.53;;
9072;SDS011;4572;41.642;25.370;2022-10-16T09:31:02;9.00;;;6.57;;
9072;SDS011;4572;41.642;25.370;2022-10-16T09:33:33;13.43;;;6.97;;
9072;SDS011;4572;41.642;25.370;2022-10-16T09:36:00;7.17;;;6.00;;
9072;SDS011;4572;41.642;25.370;2022-10-16T09:38:30;9.90;;;6.80;;
9072;SDS011;4572;41.642;25.370;2022-10-16T09:41:02;11.63;;;6.57;;
9072;SDS011;4572;41.642;25.370;2022-10-16T09:43:54;9.13;;;6.67;;
9072;SDS011;4572;41.642;25.370;2022-10-16T09:48:48;8.00;;;7.20;;
9072;SDS011;4572;41.642;25.370;2022-10-16T09:51:19;9.87;;;7.30;;
9072;SDS011;4572;41.642;25.370;2022-10-16T09:53:46;9.20;;;6.90;;
9072;SDS011;4572;41.642;25.370;2022-10-16T09:56:21;7.17;;;6.47;;
9072;SDS011;4572;41.642;25.370;2022-10-16T09:58:55;8.30;;;6.63;;
9072;SDS011;4572;41.642;25.370;2022-10-16T10:01:23;9.20;;;6.87;;
9072;SDS011;4572;41.642;25.370;2022-10-16T10:03:55;9.83;;;6.60;;
9072;SDS011;4572;41.642;25.370;2022-10-16T10:06:27;8.27;;;6.63;;
9072;SDS011;4572;41.642;25.370;2022-10-16T10:09:04;8.93;;;6.93;;
9072;SDS011;4572;41.642;25.370;2022-10-16T10:19:38;6.63;;;5.93;;
9072;SDS011;4572;41.642;25.370;2022-10-16T10:22:13;9.33;;;7.23;;
9072;SDS011;4572;41.642;25.370;2022-10-16T10:24:41;9.70;;;7.07;;
9072;SDS011;4572;41.642;25.370;2022-10-16T10:27:09;8.20;;;7.40;;
9072;SDS011;4572;41.642;25.370;2022-10-16T10:30:01;9.50;;;7.23;;
9072;SDS011;4572;41.642;25.370;2022-10-16T10:32:40;8.83;;;7.13;;
9072;SDS011;4572;41.642;25.370;2022-10-16T10:35:19;8.73;;;7.17;;
9072;SDS011;4572;41.642;25.370;2022-10-16T10:37:55;9.30;;;7.20;;
9072;SDS011;4572;41.642;25.370;2022-10-16T10:46:00;9.03;;;7.00;;
9072;SDS011;4572;41.642;25.370;2022-10-16T10:56:43;9.93;;;7.23;;
9072;SDS011;4572;41.642;25.370;2022-10-16T11:04:44;9.23;;;6.90;;
9072;SDS011;4572;41.642;25.370;2022-10-16T11:07:24;10.67;;;7.00;;
9072;SDS011;4572;41.642;25.370;2022-10-16T11:10:03;9.40;;;6.57;;
9072;SDS011;4572;41.642;25.370;2022-10-16T11:13:20;7.57;;;6.57;;
9072;SDS011;4572;41.642;25.370;2022-10-16T11:15:53;8.80;;;6.50;;
9072;SDS011;4572;41.642;25.370;2022-10-16T11:18:38;8.10;;;6.80;;
9072;SDS011;4572;41.642;25.370;2022-10-16T11:21:11;9.67;;;7.17;;
9072;SDS011;4572;41.642;25.370;2022-10-16T11:26:20;9.00;;;6.77;;
9072;SDS011;4572;41.642;25.370;2022-10-16T11:28:49;8.17;;;6.93;;
9072;SDS011;4572;41.642;25.370;2022-10-16T11:39:28;7.57;;;6.30;;
9072;SDS011;4572;41.642;25.370;2022-10-16T11:53:04;7.40;;;6.10;;
9072;SDS011;4572;41.642;25.370;2022-10-16T11:58:20;9.70;;;6.33;;
9072;SDS011;4572;41.642;25.370;2022-10-16T12:08:55;8.30;;;6.67;;
9072;SDS011;4572;41.642;25.370;2022-10-16T12:19:17;8.30;;;6.20;;
9072;SDS011;4572;41.642;25.370;2022-10-16T12:21:43;7.60;;;6.53;;
9072;SDS011;4572;41.642;25.370;2022-10-16T12:26:54;8.63;;;5.97;;
9072;SDS011;4572;41.642;25.370;2022-10-16T12:29:36;9.77;;;6.20;;
9072;SDS011;4572;41.642;25.370;2022-10-16T12:32:04;6.27;;;5.67;;
9072;SDS011;4572;41.642;25.370;2022-10-16T12:37:10;10.57;;;6.50;;
9072;SDS011;4572;41.642;25.370;2022-10-16T12:39:38;6.57;;;5.47;;
9072;SDS011;4572;41.642;25.370;2022-10-16T12:42:05;8.10;;;5.90;;
9072;SDS011;4572;41.642;25.370;2022-10-16T12:44:47;6.60;;;5.07;;
9072;SDS011;4572;41.642;25.370;2022-10-16T12:47:20;9.20;;;5.47;;
9072;SDS011;4572;41.642;25.370;2022-10-16T12:50:00;7.77;;;5.53;;
9072;SDS011;4572;41.642;25.370;2022-10-16T12:52:27;14.70;;;10.27;;
9072;SDS011;4572;41.642;25.370;2022-10-16T12:55:18;7.73;;;6.10;;
9072;SDS011;4572;41.642;25.370;2022-10-16T13:09:47;9.57;;;5.93;;
9072;SDS011;4572;41.642;25.370;2022-10-16T13:11:52;6.53;;;5.53;;
9072;SDS011;4572;41.642;25.370;2022-10-16T13:30:29;8.07;;;6.07;;
9072;SDS011;4572;41.642;25.370;2022-10-16T13:33:02;6.57;;;5.55;;
9072;SDS011;4572;41.642;25.370;2022-10-16T13:35:30;7.30;;;5.37;;
9072;SDS011;4572;41.642;25.370;2022-10-16T13:38:04;5.88;;;5.25;;
9072;SDS011;4572;41.642;25.370;2022-10-16T13:40:47;5.88;;;4.75;;
9072;SDS011;4572;41.642;25.370;2022-10-16T13:43:19;6.57;;;4.27;;
9072;SDS011;4572;41.642;25.370;2022-10-16T13:48:30;6.40;;;4.83;;
9072;SDS011;4572;41.642;25.370;2022-10-16T13:51:00;5.28;;;4.18;;
9072;SDS011;4572;41.642;25.370;2022-10-16T13:53:26;7.53;;;4.20;;
9072;SDS011;4572;41.642;25.370;2022-10-16T13:55:52;5.53;;;3.95;;
9072;SDS011;4572;41.642;25.370;2022-10-16T13:58:17;4.72;;;3.78;;
9072;SDS011;4572;41.642;25.370;2022-10-16T14:00:56;5.90;;;3.40;;
9072;SDS011;4572;41.642;25.370;2022-10-16T14:03:23;5.47;;;3.30;;
9072;SDS011;4572;41.642;25.370;2022-10-16T14:05:49;5.38;;;3.40;;
9072;SDS011;4572;41.642;25.370;2022-10-16T14:08:17;4.35;;;2.97;;
9072;SDS011;4572;41.642;25.370;2022-10-16T14:10:46;12.82;;;3.47;;
9072;SDS011;4572;41.642;25.370;2022-10-16T14:13:15;5.10;;;3.10;;
9072;SDS011;4572;41.642;25.370;2022-10-16T14:15:45;5.53;;;3.50;;
9072;SDS011;4572;41.642;25.370;2022-10-16T14:18:20;5.17;;;3.40;;
9072;SDS011;4572;41.642;25.370;2022-10-16T14:20:47;5.57;;;4.57;;
9072;SDS011;4572;41.642;25.370;2022-10-16T14:25:46;4.93;;;3.63;;
9072;SDS011;4572;41.642;25.370;2022-10-16T14:30:52;3.60;;;3.05;;
9072;SDS011;4572;41.642;25.370;2022-10-16T14:38:35;5.40;;;3.47;;
9072;SDS011;4572;41.642;25.370;2022-10-16T14:41:02;4.88;;;3.53;;
9072;SDS011;4572;41.642;25.370;2022-10-16T14:45:59;5.18;;;3.33;;
9072;SDS011;4572;41.642;25.370;2022-10-16T14:48:24;7.88;;;3.67;;
9072;SDS011;4572;41.642;25.370;2022-10-16T14:50:50;5.70;;;3.25;;
9072;SDS011;4572;41.642;25.370;2022-10-16T14:53:16;4.90;;;3.60;;
9072;SDS011;4572;41.642;25.370;2022-10-16T14:55:41;3.92;;;3.53;;
9072;SDS011;4572;41.642;25.370;2022-10-16T14:58:13;4.90;;;3.77;;
9072;SDS011;4572;41.642;25.370;2022-10-16T15:00:41;3.65;;;3.35;;
9072;SDS011;4572;41.642;25.370;2022-10-16T15:03:06;5.63;;;4.28;;
9072;SDS011;4572;41.642;25.370;2022-10-16T15:05:32;4.43;;;3.88;;
9072;SDS011;4572;41.642;25.370;2022-10-16T15:07:58;5.20;;;3.70;;
9072;SDS011;4572;41.642;25.370;2022-10-16T15:10:24;5.00;;;3.95;;
9072;SDS011;4572;41.642;25.370;2022-10-16T15:12:51;5.03;;;4.03;;
9072;SDS011;4572;41.642;25.370;2022-10-16T15:17:50;6.40;;;4.50;;
9072;SDS011;4572;41.642;25.370;2022-10-16T15:20:19;4.70;;;3.58;;
9072;SDS011;4572;41.642;25.370;2022-10-16T15:22:44;5.32;;;3.70;;
9072;SDS011;4572;41.642;25.370;2022-10-16T15:27:53;6.07;;;4.23;;
9072;SDS011;4572;41.642;25.370;2022-10-16T15:30:19;5.00;;;3.87;;
9072;SDS011;4572;41.642;25.370;2022-10-16T15:32:45;8.50;;;5.28;;
9072;SDS011;4572;41.642;25.370;2022-10-16T15:35:11;5.97;;;3.90;;
9072;SDS011;4572;41.642;25.370;2022-10-16T15:37:36;6.63;;;4.07;;
9072;SDS011;4572;41.642;25.370;2022-10-16T15:40:02;8.87;;;4.40;;
9072;SDS011;4572;41.642;25.370;2022-10-16T15:42:27;6.30;;;4.83;;
9072;SDS011;4572;41.642;25.370;2022-10-16T15:44:53;5.57;;;4.30;;
9072;SDS011;4572;41.642;25.370;2022-10-16T15:47:18;6.90;;;4.30;;
9072;SDS011;4572;41.642;25.370;2022-10-16T15:49:44;11.03;;;7.47;;
9072;SDS011;4572;41.642;25.370;2022-10-16T15:52:09;9.60;;;6.47;;
9072;SDS011;4572;41.642;25.370;2022-10-16T15:54:35;6.17;;;4.80;;
9072;SDS011;4572;41.642;25.370;2022-10-16T15:57:00;7.90;;;5.00;;
9072;SDS011;4572;41.642;25.370;2022-10-16T15:59:26;8.33;;;5.43;;
9072;SDS011;4572;41.642;25.370;2022-10-16T16:01:51;11.90;;;5.80;;
9072;SDS011;4572;41.642;25.370;2022-10-16T16:04:17;11.13;;;6.00;;
9072;SDS011;4572;41.642;25.370;2022-10-16T16:06:43;9.57;;;5.70;;
9072;SDS011;4572;41.642;25.370;2022-10-16T16:09:10;11.73;;;6.70;;
9072;SDS011;4572;41.642;25.370;2022-10-16T16:11:36;8.00;;;5.23;;
9072;SDS011;4572;41.642;25.370;2022-10-16T16:14:04;6.87;;;4.90;;
9072;SDS011;4572;41.642;25.370;2022-10-16T16:16:30;10.07;;;5.40;;
9072;SDS011;4572;41.642;25.370;2022-10-16T16:18:58;9.13;;;5.53;;
9072;SDS011;4572;41.642;25.370;2022-10-16T16:21:24;7.73;;;4.80;;
9072;SDS011;4572;41.642;25.370;2022-10-16T16:23:49;5.97;;;4.80;;
9072;SDS011;4572;41.642;25.370;2022-10-16T16:26:20;5.27;;;4.00;;
9072;SDS011;4572;41.642;25.370;2022-10-16T16:28:51;6.10;;;4.20;;
9072;SDS011;4572;41.642;25.370;2022-10-16T16:31:18;5.37;;;4.23;;
9072;SDS011;4572;41.642;25.370;2022-10-16T16:33:44;7.50;;;4.30;;
9072;SDS011;4572;41.642;25.370;2022-10-16T16:36:10;5.97;;;5.10;;
9072;SDS011;4572;41.642;25.370;2022-10-16T16:38:37;9.20;;;4.63;;
9072;SDS011;4572;41.642;25.370;2022-10-16T16:41:15;6.00;;;4.90;;
9072;SDS011;4572;41.642;25.370;2022-10-16T16:43:43;7.90;;;5.43;;
9072;SDS011;4572;41.642;25.370;2022-10-16T16:46:08;7.43;;;4.97;;
9072;SDS011;4572;41.642;25.370;2022-10-16T16:48:34;8.60;;;5.20;;
9072;SDS011;4572;41.642;25.370;2022-10-16T16:51:07;7.77;;;5.23;;
9072;SDS011;4572;41.642;25.370;2022-10-16T16:53:34;9.10;;;4.67;;
9072;SDS011;4572;41.642;25.370;2022-10-16T16:56:01;6.70;;;4.17;;
9072;SDS011;4572;41.642;25.370;2022-10-16T16:58:27;9.17;;;4.60;;
9072;SDS011;4572;41.642;25.370;2022-10-16T17:00:53;8.20;;;4.20;;
9072;SDS011;4572;41.642;25.370;2022-10-16T17:03:18;5.77;;;4.70;;
9072;SDS011;4572;41.642;25.370;2022-10-16T17:05:54;10.03;;;5.50;;
9072;SDS011;4572;41.642;25.370;2022-10-16T17:08:21;9.43;;;5.73;;
9072;SDS011;4572;41.642;25.370;2022-10-16T17:10:46;6.73;;;4.87;;
9072;SDS011;4572;41.642;25.370;2022-10-16T17:13:17;7.53;;;5.00;;
9072;SDS011;4572;41.642;25.370;2022-10-16T17:15:46;7.37;;;4.40;;
9072;SDS011;4572;41.642;25.370;2022-10-16T17:18:12;10.40;;;5.93;;
9072;SDS011;4572;41.642;25.370;2022-10-16T17:20:38;9.37;;;5.37;;
9072;SDS011;4572;41.642;25.370;2022-10-16T17:23:03;6.67;;;4.60;;
9072;SDS011;4572;41.642;25.370;2022-10-16T17:25:29;8.33;;;4.93;;
9072;SDS011;4572;41.642;25.370;2022-10-16T17:27:54;6.00;;;4.77;;
9072;SDS011;4572;41.642;25.370;2022-10-16T17:30:20;8.50;;;4.97;;
9072;SDS011;4572;41.642;25.370;2022-10-16T17:32:45;7.20;;;4.70;;
9072;SDS011;4572;41.642;25.370;2022-10-16T17:35:11;7.47;;;4.90;;
9072;SDS011;4572;41.642;25.370;2022-10-16T17:37:36;7.17;;;4.77;;
9072;SDS011;4572;41.642;25.370;2022-10-16T17:40:02;7.97;;;5.07;;
9072;SDS011;4572;41.642;25.370;2022-10-16T17:42:28;14.67;;;10.07;;
9072;SDS011;4572;41.642;25.370;2022-10-16T17:44:53;7.33;;;5.73;;
9072;SDS011;4572;41.642;25.370;2022-10-16T17:47:18;7.57;;;4.70;;
9072;SDS011;4572;41.642;25.370;2022-10-16T17:49:44;13.73;;;7.33;;